createdAt,value
2023-04-18T00:10:29.298Z,71.88
2023-04-18T00:12:55.148Z,72.13
2023-04-18T00:15:21.610Z,72.19
2023-04-18T00:17:48.227Z,71.48
2023-04-18T00:20:14.982Z,71.14
2023-04-18T00:22:42.625Z,71.30
2023-04-18T00:25:11.033Z,70.03
2023-04-18T00:27:41.663Z,70.27
2023-04-18T00:30:09.108Z,70.42
2023-04-18T00:32:35.674Z,69.38
2023-04-18T00:35:02.366Z,69.83
2023-04-18T00:37:29.292Z,69.47
2023-04-18T00:39:55.735Z,69.45
2023-04-18T00:42:22.730Z,69.07
2023-04-18T00:44:49.166Z,67.95
2023-04-18T00:47:17.450Z,68.71
2023-04-18T00:49:45.025Z,68.30
2023-04-18T00:52:15.511Z,68.49
2023-04-18T00:54:42.919Z,67.84
2023-04-18T00:57:09.447Z,68.57
2023-04-18T00:59:35.953Z,68.00
2023-04-18T01:02:05.715Z,67.56
2023-04-18T01:04:32.646Z,67.94
2023-04-18T01:07:00.049Z,67.36
2023-04-18T01:09:26.867Z,68.59
2023-04-18T01:11:53.320Z,68.18
2023-04-18T01:14:20.677Z,68.05
2023-04-18T01:16:48.334Z,68.05
2023-04-18T01:19:17.375Z,67.68
2023-04-18T01:21:44.018Z,67.79
2023-04-18T01:24:12.654Z,68.32
2023-04-18T01:26:39.807Z,67.90
2023-04-18T01:29:06.762Z,67.57
2023-04-18T01:31:37.768Z,68.12
2023-04-18T01:34:05.144Z,68.56
2023-04-18T01:36:32.681Z,68.54
2023-04-18T01:38:59.924Z,68.83
2023-04-18T01:41:29.067Z,69.44
2023-04-18T01:43:55.671Z,68.71
2023-04-18T01:46:22.165Z,69.25
2023-04-18T01:48:48.587Z,68.40
2023-04-18T01:51:15.229Z,69.29
2023-04-18T01:53:41.964Z,68.88
2023-04-18T01:56:10.252Z,68.84
2023-04-18T01:58:37.237Z,69.27
2023-04-18T02:01:04.053Z,69.30
2023-04-18T02:03:31.114Z,68.69
2023-04-18T02:05:57.692Z,69.03
2023-04-18T02:08:24.184Z,69.27
2023-04-18T02:10:50.778Z,69.29
2023-04-18T02:13:17.406Z,68.84
2023-04-18T02:15:45.885Z,69.52
2023-04-18T02:18:12.513Z,68.66
2023-04-18T02:20:39.226Z,69.64
2023-04-18T02:23:06.244Z,68.99
2023-04-18T02:25:33.096Z,69.56
2023-04-18T02:27:59.792Z,69.42
2023-04-18T02:30:26.666Z,69.15
2023-04-18T02:32:59.062Z,69.78
2023-04-18T02:35:27.171Z,69.13
2023-04-18T02:37:59.856Z,68.33
2023-04-18T02:40:26.615Z,68.67
2023-04-18T02:42:53.073Z,68.77
2023-04-18T02:45:19.532Z,68.16
2023-04-18T02:47:57.235Z,68.29
2023-04-18T02:50:24.817Z,68.03
2023-04-18T02:52:51.458Z,67.48
2023-04-18T02:55:18.002Z,67.99
2023-04-18T02:57:44.537Z,68.71
2023-04-18T03:00:11.815Z,67.89
2023-04-18T03:02:38.373Z,68.35
2023-04-18T03:05:06.282Z,68.03
2023-04-18T03:07:32.872Z,68.29
2023-04-18T03:09:59.980Z,68.59
2023-04-18T03:12:26.417Z,67.72
2023-04-18T03:14:52.952Z,68.44
2023-04-18T03:17:19.558Z,68.16
2023-04-18T03:19:46.491Z,68.99
2023-04-18T03:22:14.299Z,69.18
2023-04-18T03:24:40.838Z,68.63
2023-04-18T03:27:07.572Z,69.33
2023-04-18T03:29:34.180Z,69.02
2023-04-18T03:32:00.840Z,68.43
2023-04-18T03:34:27.401Z,68.58
2023-04-18T03:36:54.239Z,69.22
2023-04-18T03:39:20.857Z,69.57
2023-04-18T03:41:47.364Z,69.29
2023-04-18T03:44:13.956Z,69.68
2023-04-18T03:46:41.187Z,68.98
2023-04-18T03:49:07.847Z,68.41
2023-04-18T03:51:43.164Z,68.27
2023-04-18T03:54:09.683Z,68.77
2023-04-18T03:56:36.221Z,68.30
2023-04-18T03:59:02.662Z,68.73
2023-04-18T04:01:29.212Z,69.16
2023-04-18T04:03:57.748Z,69.39
2023-04-18T04:06:24.545Z,69.58
2023-04-18T04:08:50.978Z,70.39
2023-04-18T04:11:29.466Z,70.55
2023-04-18T04:13:55.887Z,68.87
2023-04-18T04:16:22.929Z,69.52
2023-04-18T04:19:13.867Z,69.38
2023-04-18T04:21:40.356Z,69.59
2023-04-18T04:24:08.788Z,69.34
2023-04-18T04:26:35.705Z,69.43
2023-04-18T04:29:03.511Z,70.38
2023-04-18T04:31:30.193Z,70.64
2023-04-18T04:33:56.641Z,70.41
2023-04-18T04:36:24.657Z,69.88
2023-04-18T04:38:57.056Z,70.41
2023-04-18T04:41:24.589Z,70.03
2023-04-18T04:43:52.287Z,69.84
2023-04-18T04:46:20.031Z,69.98
2023-04-18T04:48:46.736Z,70.35
2023-04-18T04:51:13.144Z,70.84
2023-04-18T04:53:39.608Z,70.87
2023-04-18T04:56:07.148Z,69.93
2023-04-18T04:58:33.730Z,70.45
2023-04-18T05:01:00.600Z,70.19
2023-04-18T05:03:27.844Z,70.13
2023-04-18T05:05:56.567Z,70.38
2023-04-18T05:08:23.085Z,70.49
2023-04-18T05:10:50.179Z,70.16
2023-04-18T05:13:17.144Z,70.20
2023-04-18T05:15:43.838Z,70.43
2023-04-18T05:18:10.399Z,71.20
2023-04-18T05:20:36.887Z,70.85
2023-04-18T05:23:03.346Z,71.38
2023-04-18T05:25:30.029Z,70.79
2023-04-18T05:28:04.620Z,71.14
2023-04-18T05:30:31.270Z,72.03
2023-04-18T05:32:57.755Z,72.56
2023-04-18T05:35:24.346Z,72.32
2023-04-18T05:37:51.428Z,72.54
2023-04-18T05:40:17.908Z,73.27
2023-04-18T05:42:44.360Z,72.53
2023-04-18T05:45:12.993Z,73.54
2023-04-18T05:47:39.718Z,73.42
2023-04-18T05:50:07.193Z,73.46
2023-04-18T05:52:33.696Z,73.76
2023-04-18T05:55:00.144Z,73.19
2023-04-18T05:57:26.615Z,74.08
2023-04-18T05:59:53.088Z,73.72
2023-04-18T06:02:19.610Z,73.63
2023-04-18T06:04:46.322Z,73.84
2023-04-18T06:07:12.984Z,73.80
2023-04-18T06:09:39.624Z,73.99
2023-04-18T06:12:06.158Z,73.97
2023-04-18T06:14:32.620Z,73.44
2023-04-18T06:16:59.300Z,73.32
2023-04-18T06:19:25.791Z,73.81
2023-04-18T06:21:53.232Z,73.86
2023-04-18T06:24:21.111Z,73.88
2023-04-18T06:26:47.582Z,74.24
2023-04-18T06:29:14.046Z,73.97
2023-04-18T06:31:42.260Z,73.96
2023-04-18T06:34:08.821Z,73.53
2023-04-18T06:36:35.514Z,73.64
2023-04-18T06:39:02.045Z,75.06
2023-04-18T06:41:28.554Z,73.89
2023-04-18T06:44:03.406Z,74.41
2023-04-18T06:46:31.832Z,74.68
2023-04-18T06:48:58.684Z,75.59
2023-04-18T06:51:25.115Z,75.08
2023-04-18T06:53:53.609Z,75.94
2023-04-18T06:56:20.748Z,75.40
2023-04-18T06:58:48.224Z,75.98
2023-04-18T07:01:14.746Z,75.17
2023-04-18T07:03:41.380Z,75.78
2023-04-18T07:06:10.460Z,75.31
2023-04-18T07:08:37.359Z,75.79
2023-04-18T07:11:03.930Z,76.18
2023-04-18T07:13:30.349Z,75.67
2023-04-18T07:15:56.809Z,76.10
2023-04-18T07:18:34.224Z,75.47
2023-04-18T07:21:03.540Z,75.25
2023-04-18T07:23:29.933Z,75.69
2023-04-18T07:25:58.581Z,74.75
2023-04-18T07:28:25.187Z,74.69
2023-04-18T07:30:51.694Z,73.70
2023-04-18T07:33:18.239Z,73.68
2023-04-18T07:35:46.590Z,73.05
2023-04-18T07:38:13.162Z,73.10
2023-04-18T07:40:39.575Z,73.51
2023-04-18T07:43:06.146Z,72.04
2023-04-18T07:45:35.657Z,72.10
2023-04-18T07:48:02.515Z,71.72
2023-04-18T07:50:29.003Z,72.32
2023-04-18T07:52:55.599Z,71.70
2023-04-18T07:55:22.022Z,72.39
2023-04-18T07:57:50.420Z,71.90
2023-04-18T08:00:19.959Z,72.01
2023-04-18T08:02:46.532Z,72.29
2023-04-18T08:05:13.379Z,71.58
2023-04-18T08:07:39.807Z,71.29
2023-04-18T08:10:07.029Z,70.14
2023-04-18T08:12:33.480Z,70.05
2023-04-18T08:14:59.981Z,70.38
2023-04-18T08:17:26.430Z,70.94
2023-04-18T08:19:52.912Z,70.00
2023-04-18T08:22:19.389Z,70.05
2023-04-18T08:25:01.078Z,69.12
2023-04-18T08:27:31.360Z,68.59
2023-04-18T08:29:58.196Z,68.15
2023-04-18T08:32:24.664Z,66.86
2023-04-18T08:34:51.225Z,66.38
2023-04-18T08:37:17.739Z,66.88
2023-04-18T08:39:44.961Z,67.12
2023-04-18T08:42:15.918Z,67.71
2023-04-18T08:44:45.110Z,65.96
2023-04-18T08:47:12.719Z,65.99
2023-04-18T08:49:39.977Z,65.45
2023-04-18T08:52:14.744Z,65.14
2023-04-18T08:54:42.714Z,65.52
2023-04-18T08:57:12.417Z,64.05
2023-04-18T08:59:40.142Z,63.89
2023-04-18T09:02:08.987Z,63.56
2023-04-18T09:04:49.029Z,63.76
2023-04-18T09:07:16.954Z,62.47
2023-04-18T09:09:43.365Z,62.72
2023-04-18T09:12:11.278Z,61.54
2023-04-18T09:14:40.155Z,62.50
2023-04-18T09:17:07.025Z,62.40
2023-04-18T09:19:33.904Z,61.71
2023-04-18T09:22:04.724Z,61.39
2023-04-18T09:24:32.020Z,61.65
2023-04-18T09:26:59.744Z,61.47
2023-04-18T09:29:41.494Z,61.87
2023-04-18T09:32:08.044Z,61.21
2023-04-18T09:34:38.298Z,58.64
2023-04-18T09:37:10.135Z,57.86
2023-04-18T09:39:41.331Z,58.17
2023-04-18T09:42:08.522Z,57.88
2023-04-18T09:44:35.031Z,57.96
2023-04-18T09:47:01.711Z,58.26
2023-04-18T09:49:28.584Z,58.37
2023-04-18T09:51:55.856Z,59.45
2023-04-18T09:54:25.839Z,58.45
2023-04-18T10:01:18.596Z,53.35
2023-04-18T10:03:48.751Z,50.12
2023-04-18T10:07:04.740Z,48.80
2023-04-18T10:10:16.805Z,48.03
2023-04-18T10:12:51.720Z,45.79
2023-04-18T10:15:21.113Z,44.90
2023-04-18T10:18:07.058Z,43.13
2023-04-18T10:20:34.854Z,40.27
2023-04-18T10:23:30.721Z,39.06
2023-04-18T10:25:57.910Z,38.32
2023-04-18T10:28:26.587Z,38.14
2023-04-18T10:30:54.638Z,39.38
2023-04-18T10:33:40.831Z,39.50
2023-04-18T10:36:09.478Z,41.18
2023-04-18T10:38:45.189Z,42.45
2023-04-18T10:41:25.591Z,45.17
2023-04-18T10:44:08.402Z,47.62
2023-04-18T10:46:51.089Z,49.11
2023-04-18T10:49:22.831Z,49.77
2023-04-18T10:51:58.793Z,50.42
2023-04-18T10:54:50.947Z,51.29
2023-04-18T10:57:17.785Z,52.52
2023-04-18T10:59:49.534Z,52.68
2023-04-18T11:02:30.613Z,53.58
2023-04-18T11:04:59.410Z,53.70
2023-04-18T11:07:52.680Z,51.02
2023-04-18T11:10:24.523Z,45.43
2023-04-18T11:12:51.704Z,44.15
2023-04-18T11:15:23.564Z,43.68
2023-04-18T11:18:03.883Z,44.75
2023-04-18T11:20:46.121Z,45.50
2023-04-18T11:23:22.872Z,47.17
2023-04-18T11:25:51.996Z,48.40
2023-04-18T11:28:20.895Z,48.91
2023-04-18T11:30:48.051Z,48.07
2023-04-18T11:33:15.171Z,47.32
2023-04-18T11:35:43.876Z,47.05
2023-04-18T11:38:15.426Z,47.48
2023-04-18T11:40:49.652Z,47.90
2023-04-18T11:43:21.624Z,47.61
2023-04-18T11:45:56.283Z,47.11
2023-04-18T11:48:23.710Z,47.72
2023-04-18T11:50:50.595Z,48.16
2023-04-18T11:53:35.354Z,46.13
2023-04-18T11:56:03.587Z,46.25
2023-04-18T11:58:34.527Z,42.94
2023-04-18T12:01:16.374Z,42.65
2023-04-18T12:03:44.570Z,42.34
2023-04-18T12:06:13.804Z,40.70
2023-04-18T12:08:43.556Z,41.09
2023-04-18T12:11:10.101Z,40.38
2023-04-18T12:16:37.427Z,36.94
2023-04-18T12:19:06.599Z,36.62
2023-04-18T12:21:33.296Z,37.36
2023-04-18T12:24:00.600Z,38.28
2023-04-18T12:26:27.475Z,37.65
2023-04-18T12:28:54.082Z,38.15
2023-04-18T12:31:22.392Z,36.01
2023-04-18T12:33:50.678Z,35.51
2023-04-18T12:36:17.303Z,36.80
2023-04-18T12:38:44.427Z,37.20
2023-04-18T12:41:10.962Z,34.27
2023-04-18T12:43:37.387Z,32.26
2023-04-18T12:46:03.821Z,31.98
2023-04-18T12:48:30.292Z,30.94
2023-04-18T12:50:56.784Z,30.07
2023-04-18T12:53:23.232Z,28.70
2023-04-18T12:55:49.685Z,28.75
2023-04-18T12:58:18.597Z,29.00
2023-04-18T13:00:45.242Z,28.56
2023-04-18T13:03:13.466Z,27.41
2023-04-18T13:05:40.254Z,27.32
2023-04-18T13:08:16.290Z,25.69
2023-04-18T13:10:43.926Z,26.11
2023-04-18T13:13:10.409Z,27.55
2023-04-18T13:15:37.108Z,27.67
2023-04-18T13:18:06.219Z,28.64
2023-04-18T13:20:34.889Z,28.76
2023-04-18T13:23:04.643Z,29.48
2023-04-18T13:25:31.362Z,28.25
2023-04-18T13:27:58.505Z,27.19
2023-04-18T13:30:25.680Z,26.39
2023-04-18T13:32:57.333Z,26.24
2023-04-18T13:35:23.830Z,25.94
2023-04-18T13:37:50.600Z,25.36
2023-04-18T13:40:17.509Z,25.45
2023-04-18T13:42:46.104Z,24.77
2023-04-18T13:45:12.644Z,25.13
2023-04-18T13:47:39.400Z,26.00
2023-04-18T13:50:06.969Z,25.54
2023-04-18T13:52:33.410Z,25.43
2023-04-18T13:54:59.847Z,25.39
2023-04-18T13:57:26.678Z,24.63
2023-04-18T13:59:53.079Z,24.72
2023-04-18T14:02:31.671Z,26.55
2023-04-18T14:05:01.285Z,25.48
2023-04-18T14:07:27.873Z,25.63
2023-04-18T14:09:54.593Z,25.53
2023-04-18T14:12:21.572Z,27.23
2023-04-18T14:14:47.999Z,26.47
2023-04-18T14:17:14.642Z,25.29
2023-04-18T14:19:41.469Z,24.85
2023-04-18T14:22:07.961Z,26.30
2023-04-18T14:24:37.140Z,27.08
2023-04-18T14:29:07.231Z,25.87
2023-04-18T14:31:14.397Z,25.21
2023-04-18T14:36:52.106Z,26.36
2023-04-18T14:39:31.988Z,25.36
2023-04-18T14:42:43.729Z,24.73
2023-04-18T14:45:25.213Z,25.00
2023-04-18T14:48:13.974Z,25.65
2023-04-18T14:50:44.002Z,24.69
2023-04-18T14:53:13.163Z,25.00
2023-04-18T14:55:48.167Z,28.91
2023-04-18T14:58:14.775Z,30.80
2023-04-18T15:00:45.794Z,30.47
2023-04-18T15:03:12.575Z,31.53
2023-04-18T15:05:46.710Z,30.44
2023-04-18T15:08:16.534Z,32.55
2023-04-18T15:10:46.744Z,31.71
2023-04-18T15:13:13.548Z,32.50
2023-04-18T15:15:41.613Z,33.70
2023-04-18T15:18:10.119Z,32.46
2023-04-18T15:20:44.558Z,29.98
2023-04-18T15:23:16.501Z,29.43
2023-04-18T15:25:44.912Z,27.85
2023-04-18T15:28:27.756Z,27.32
2023-04-18T15:30:59.712Z,27.72
2023-04-18T15:33:31.652Z,28.89
2023-04-18T15:36:00.626Z,30.15
2023-04-18T15:38:32.288Z,29.06
2023-04-18T15:41:11.518Z,27.36
2023-04-18T15:43:49.858Z,27.25
2023-04-18T15:46:16.773Z,28.19
2023-04-18T15:48:43.375Z,27.48
2023-04-18T15:51:14.485Z,28.33
2023-04-18T15:53:52.245Z,28.41
2023-04-18T15:56:25.486Z,29.26
2023-04-18T15:59:09.985Z,30.57
2023-04-18T16:01:37.093Z,30.28
2023-04-18T16:04:08.282Z,29.57
2023-04-18T16:06:37.154Z,28.29
2023-04-18T16:09:22.531Z,28.07
2023-04-18T16:11:49.172Z,26.90
2023-04-18T16:14:16.706Z,26.14
2023-04-18T16:16:46.348Z,25.91
2023-04-18T16:19:13.159Z,26.51
2023-04-18T16:21:44.582Z,26.18
2023-04-18T16:24:19.999Z,27.11
2023-04-18T16:26:49.505Z,27.36
2023-04-18T16:29:18.848Z,28.45
2023-04-18T16:32:14.625Z,28.27
2023-04-18T16:34:43.511Z,28.00
2023-04-18T16:37:10.103Z,27.96
2023-04-18T16:39:41.663Z,28.03
2023-04-18T16:42:31.729Z,28.01
2023-04-18T16:45:07.003Z,27.88
2023-04-18T16:51:57.717Z,29.15
2023-04-18T16:54:34.454Z,29.33
2023-04-18T16:57:01.842Z,30.81
2023-04-18T16:59:31.273Z,33.05
2023-04-18T17:05:20.056Z,37.96
2023-04-18T17:07:53.959Z,39.82
2023-04-18T17:10:20.762Z,41.46
2023-04-18T17:12:52.081Z,43.05
